sensor_id;sensor_type;location;lat;lon;timestamp;P1;durP1;ratioP1;P2;durP2;ratioP2
77206;SDS011;66190;50.708;7.906;2023-06-14T00:01:10;9.20;;;3.93;;
77206;SDS011;66190;50.708;7.906;2023-06-14T00:03:38;12.60;;;4.45;;
77206;SDS011;66190;50.708;7.906;2023-06-14T00:06:04;12.17;;;4.40;;
77206;SDS011;66190;50.708;7.906;2023-06-14T00:08:29;9.60;;;4.40;;
77206;SDS011;66190;50.708;7.906;2023-06-14T00:10:55;11.50;;;4.33;;
77206;SDS011;66190;50.708;7.906;2023-06-14T00:13:20;10.67;;;4.13;;
77206;SDS011;66190;50.708;7.906;2023-06-14T00:15:46;9.80;;;4.20;;
77206;SDS011;66190;50.708;7.906;2023-06-14T00:18:12;8.38;;;3.67;;
77206;SDS011;66190;50.708;7.906;2023-06-14T00:20:38;11.00;;;4.27;;
77206;SDS011;66190;50.708;7.906;2023-06-14T00:23:04;12.25;;;4.03;;
77206;SDS011;66190;50.708;7.906;2023-06-14T00:25:30;9.13;;;3.90;;
77206;SDS011;66190;50.708;7.906;2023-06-14T00:27:55;9.73;;;3.92;;
77206;SDS011;66190;50.708;7.906;2023-06-14T00:30:22;10.90;;;3.63;;
77206;SDS011;66190;50.708;7.906;2023-06-14T00:32:47;8.45;;;3.90;;
77206;SDS011;66190;50.708;7.906;2023-06-14T00:35:13;10.90;;;3.70;;
77206;SDS011;66190;50.708;7.906;2023-06-14T00:37:39;10.82;;;4.05;;
77206;SDS011;66190;50.708;7.906;2023-06-14T00:40:05;8.40;;;4.10;;
77206;SDS011;66190;50.708;7.906;2023-06-14T00:42:31;16.65;;;3.97;;
77206;SDS011;66190;50.708;7.906;2023-06-14T00:44:57;7.18;;;3.50;;
77206;SDS011;66190;50.708;7.906;2023-06-14T00:47:23;8.43;;;3.87;;
77206;SDS011;66190;50.708;7.906;2023-06-14T00:49:49;8.23;;;3.57;;
77206;SDS011;66190;50.708;7.906;2023-06-14T00:52:16;8.20;;;3.85;;
77206;SDS011;66190;50.708;7.906;2023-06-14T00:54:41;8.65;;;4.10;;
77206;SDS011;66190;50.708;7.906;2023-06-14T00:57:07;9.10;;;4.13;;
77206;SDS011;66190;50.708;7.906;2023-06-14T00:59:35;8.77;;;3.83;;
77206;SDS011;66190;50.708;7.906;2023-06-14T01:02:08;9.80;;;3.42;;
77206;SDS011;66190;50.708;7.906;2023-06-14T01:04:33;10.87;;;3.80;;
77206;SDS011;66190;50.708;7.906;2023-06-14T01:07:05;9.23;;;4.30;;
77206;SDS011;66190;50.708;7.906;2023-06-14T01:14:53;8.60;;;3.60;;
77206;SDS011;66190;50.708;7.906;2023-06-14T01:17:20;7.82;;;3.72;;
77206;SDS011;66190;50.708;7.906;2023-06-14T01:19:48;8.37;;;3.67;;
77206;SDS011;66190;50.708;7.906;2023-06-14T01:22:14;10.35;;;4.55;;
77206;SDS011;66190;50.708;7.906;2023-06-14T01:24:39;7.63;;;4.13;;
77206;SDS011;66190;50.708;7.906;2023-06-14T01:27:10;10.33;;;3.40;;
77206;SDS011;66190;50.708;7.906;2023-06-14T01:29:37;8.40;;;3.70;;
77206;SDS011;66190;50.708;7.906;2023-06-14T01:32:03;9.25;;;3.50;;
77206;SDS011;66190;50.708;7.906;2023-06-14T01:34:30;8.82;;;4.13;;
77206;SDS011;66190;50.708;7.906;2023-06-14T01:36:56;10.13;;;4.00;;
77206;SDS011;66190;50.708;7.906;2023-06-14T01:39:23;9.37;;;3.53;;
77206;SDS011;66190;50.708;7.906;2023-06-14T01:41:49;12.18;;;3.60;;
77206;SDS011;66190;50.708;7.906;2023-06-14T01:44:16;10.88;;;3.80;;
77206;SDS011;66190;50.708;7.906;2023-06-14T01:46:43;8.35;;;3.72;;
77206;SDS011;66190;50.708;7.906;2023-06-14T01:49:10;9.10;;;3.65;;
77206;SDS011;66190;50.708;7.906;2023-06-14T01:51:36;9.77;;;3.90;;
77206;SDS011;66190;50.708;7.906;2023-06-14T01:54:01;7.03;;;3.77;;
77206;SDS011;66190;50.708;7.906;2023-06-14T01:56:27;9.03;;;3.30;;
77206;SDS011;66190;50.708;7.906;2023-06-14T01:58:53;8.40;;;3.73;;
77206;SDS011;66190;50.708;7.906;2023-06-14T02:01:19;7.72;;;3.63;;
77206;SDS011;66190;50.708;7.906;2023-06-14T02:03:46;9.93;;;3.55;;
77206;SDS011;66190;50.708;7.906;2023-06-14T02:06:13;10.20;;;3.63;;
77206;SDS011;66190;50.708;7.906;2023-06-14T02:08:40;8.23;;;3.75;;
77206;SDS011;66190;50.708;7.906;2023-06-14T02:11:06;9.20;;;3.63;;
77206;SDS011;66190;50.708;7.906;2023-06-14T02:13:31;8.83;;;3.60;;
77206;SDS011;66190;50.708;7.906;2023-06-14T02:15:57;8.97;;;3.23;;
77206;SDS011;66190;50.708;7.906;2023-06-14T02:18:23;10.07;;;3.87;;
77206;SDS011;66190;50.708;7.906;2023-06-14T02:20:48;14.98;;;3.70;;
77206;SDS011;66190;50.708;7.906;2023-06-14T02:23:14;9.50;;;4.30;;
77206;SDS011;66190;50.708;7.906;2023-06-14T02:25:39;9.70;;;3.97;;
77206;SDS011;66190;50.708;7.906;2023-06-14T02:28:05;11.23;;;3.90;;
77206;SDS011;66190;50.708;7.906;2023-06-14T02:30:31;10.45;;;3.75;;
77206;SDS011;66190;50.708;7.906;2023-06-14T02:32:56;8.60;;;3.57;;
77206;SDS011;66190;50.708;7.906;2023-06-14T02:35:22;8.47;;;3.73;;
77206;SDS011;66190;50.708;7.906;2023-06-14T02:37:51;8.40;;;3.55;;
77206;SDS011;66190;50.708;7.906;2023-06-14T02:40:17;11.93;;;3.55;;
77206;SDS011;66190;50.708;7.906;2023-06-14T02:42:43;11.37;;;3.77;;
77206;SDS011;66190;50.708;7.906;2023-06-14T02:45:08;10.90;;;3.80;;
77206;SDS011;66190;50.708;7.906;2023-06-14T02:47:34;9.02;;;3.65;;
77206;SDS011;66190;50.708;7.906;2023-06-14T02:49:59;11.37;;;3.67;;
77206;SDS011;66190;50.708;7.906;2023-06-14T02:52:25;9.83;;;3.57;;
77206;SDS011;66190;50.708;7.906;2023-06-14T02:54:50;8.57;;;3.47;;
77206;SDS011;66190;50.708;7.906;2023-06-14T02:57:16;11.90;;;4.13;;
77206;SDS011;66190;50.708;7.906;2023-06-14T02:59:41;8.10;;;3.70;;
77206;SDS011;66190;50.708;7.906;2023-06-14T03:02:06;11.83;;;3.90;;
77206;SDS011;66190;50.708;7.906;2023-06-14T03:04:32;9.38;;;3.67;;
77206;SDS011;66190;50.708;7.906;2023-06-14T03:07:02;11.17;;;3.90;;
77206;SDS011;66190;50.708;7.906;2023-06-14T03:09:34;8.75;;;4.00;;
77206;SDS011;66190;50.708;7.906;2023-06-14T03:12:00;11.05;;;4.18;;
77206;SDS011;66190;50.708;7.906;2023-06-14T03:14:26;9.97;;;3.70;;
77206;SDS011;66190;50.708;7.906;2023-06-14T03:16:51;13.63;;;3.43;;
77206;SDS011;66190;50.708;7.906;2023-06-14T03:19:21;10.15;;;3.30;;
77206;SDS011;66190;50.708;7.906;2023-06-14T03:21:47;9.73;;;3.67;;
77206;SDS011;66190;50.708;7.906;2023-06-14T03:24:14;13.45;;;3.30;;
77206;SDS011;66190;50.708;7.906;2023-06-14T03:26:41;10.45;;;3.92;;
77206;SDS011;66190;50.708;7.906;2023-06-14T03:29:07;7.50;;;3.17;;
77206;SDS011;66190;50.708;7.906;2023-06-14T03:31:32;6.97;;;3.20;;
77206;SDS011;66190;50.708;7.906;2023-06-14T03:34:00;8.90;;;3.20;;
77206;SDS011;66190;50.708;7.906;2023-06-14T03:36:25;9.83;;;3.10;;
77206;SDS011;66190;50.708;7.906;2023-06-14T03:38:50;9.30;;;3.53;;
77206;SDS011;66190;50.708;7.906;2023-06-14T03:41:16;8.07;;;3.17;;
77206;SDS011;66190;50.708;7.906;2023-06-14T03:43:41;7.93;;;3.30;;
77206;SDS011;66190;50.708;7.906;2023-06-14T03:46:09;8.10;;;3.53;;
77206;SDS011;66190;50.708;7.906;2023-06-14T03:48:35;10.53;;;2.93;;
77206;SDS011;66190;50.708;7.906;2023-06-14T03:51:00;6.50;;;3.03;;
77206;SDS011;66190;50.708;7.906;2023-06-14T03:53:27;6.88;;;3.40;;
77206;SDS011;66190;50.708;7.906;2023-06-14T03:55:54;6.87;;;2.97;;
77206;SDS011;66190;50.708;7.906;2023-06-14T03:58:19;10.30;;;3.40;;
77206;SDS011;66190;50.708;7.906;2023-06-14T04:00:45;6.43;;;2.63;;
77206;SDS011;66190;50.708;7.906;2023-06-14T04:03:10;12.67;;;3.50;;
77206;SDS011;66190;50.708;7.906;2023-06-14T04:05:38;8.43;;;3.30;;
77206;SDS011;66190;50.708;7.906;2023-06-14T04:08:07;8.27;;;3.30;;
77206;SDS011;66190;50.708;7.906;2023-06-14T04:10:34;7.78;;;3.20;;
77206;SDS011;66190;50.708;7.906;2023-06-14T04:12:59;8.07;;;3.60;;
77206;SDS011;66190;50.708;7.906;2023-06-14T04:15:25;9.30;;;3.07;;
77206;SDS011;66190;50.708;7.906;2023-06-14T04:17:53;7.20;;;3.00;;
77206;SDS011;66190;50.708;7.906;2023-06-14T04:20:22;10.13;;;3.60;;
77206;SDS011;66190;50.708;7.906;2023-06-14T04:22:49;6.85;;;3.53;;
77206;SDS011;66190;50.708;7.906;2023-06-14T04:25:14;8.30;;;3.50;;
77206;SDS011;66190;50.708;7.906;2023-06-14T04:27:40;7.80;;;3.40;;
77206;SDS011;66190;50.708;7.906;2023-06-14T04:30:06;9.00;;;3.30;;
77206;SDS011;66190;50.708;7.906;2023-06-14T04:32:32;15.77;;;3.55;;
77206;SDS011;66190;50.708;7.906;2023-06-14T04:35:04;8.45;;;3.15;;
77206;SDS011;66190;50.708;7.906;2023-06-14T04:37:33;7.70;;;3.35;;
77206;SDS011;66190;50.708;7.906;2023-06-14T04:39:59;9.25;;;3.45;;
77206;SDS011;66190;50.708;7.906;2023-06-14T04:42:25;8.50;;;2.87;;
77206;SDS011;66190;50.708;7.906;2023-06-14T04:44:55;9.95;;;3.35;;
77206;SDS011;66190;50.708;7.906;2023-06-14T04:47:21;9.90;;;3.67;;
77206;SDS011;66190;50.708;7.906;2023-06-14T04:49:47;8.77;;;3.30;;
77206;SDS011;66190;50.708;7.906;2023-06-14T04:52:13;9.77;;;3.13;;
77206;SDS011;66190;50.708;7.906;2023-06-14T04:54:41;9.18;;;3.55;;
77206;SDS011;66190;50.708;7.906;2023-06-14T04:57:07;17.77;;;3.70;;
77206;SDS011;66190;50.708;7.906;2023-06-14T04:59:33;10.60;;;3.28;;
77206;SDS011;66190;50.708;7.906;2023-06-14T05:02:00;8.83;;;3.00;;
77206;SDS011;66190;50.708;7.906;2023-06-14T05:04:26;14.15;;;3.35;;
77206;SDS011;66190;50.708;7.906;2023-06-14T05:06:53;11.75;;;3.83;;
77206;SDS011;66190;50.708;7.906;2023-06-14T05:09:19;13.27;;;3.63;;
77206;SDS011;66190;50.708;7.906;2023-06-14T05:11:46;8.27;;;3.20;;
77206;SDS011;66190;50.708;7.906;2023-06-14T05:14:12;10.05;;;3.45;;
77206;SDS011;66190;50.708;7.906;2023-06-14T05:16:38;10.25;;;3.45;;
77206;SDS011;66190;50.708;7.906;2023-06-14T05:19:04;7.77;;;2.77;;
77206;SDS011;66190;50.708;7.906;2023-06-14T05:21:29;7.82;;;3.30;;
77206;SDS011;66190;50.708;7.906;2023-06-14T05:23:56;9.27;;;3.03;;
77206;SDS011;66190;50.708;7.906;2023-06-14T05:26:21;11.02;;;3.00;;
77206;SDS011;66190;50.708;7.906;2023-06-14T05:28:48;8.53;;;3.13;;
77206;SDS011;66190;50.708;7.906;2023-06-14T05:31:15;6.90;;;3.00;;
77206;SDS011;66190;50.708;7.906;2023-06-14T05:33:40;6.70;;;2.77;;
77206;SDS011;66190;50.708;7.906;2023-06-14T05:36:06;7.47;;;2.70;;
77206;SDS011;66190;50.708;7.906;2023-06-14T05:38:31;7.00;;;2.77;;
77206;SDS011;66190;50.708;7.906;2023-06-14T05:40:57;6.87;;;2.63;;
77206;SDS011;66190;50.708;7.906;2023-06-14T05:43:22;9.33;;;3.40;;
77206;SDS011;66190;50.708;7.906;2023-06-14T05:45:47;6.67;;;3.13;;
77206;SDS011;66190;50.708;7.906;2023-06-14T05:48:13;8.80;;;2.50;;
77206;SDS011;66190;50.708;7.906;2023-06-14T05:50:38;7.82;;;3.45;;
77206;SDS011;66190;50.708;7.906;2023-06-14T05:53:03;7.73;;;2.80;;
77206;SDS011;66190;50.708;7.906;2023-06-14T05:55:29;7.67;;;2.63;;
77206;SDS011;66190;50.708;7.906;2023-06-14T05:57:54;6.10;;;2.77;;
77206;SDS011;66190;50.708;7.906;2023-06-14T06:00:20;9.87;;;2.70;;
77206;SDS011;66190;50.708;7.906;2023-06-14T06:02:45;6.70;;;2.72;;
77206;SDS011;66190;50.708;7.906;2023-06-14T06:05:12;6.45;;;2.20;;
77206;SDS011;66190;50.708;7.906;2023-06-14T06:07:38;7.28;;;2.75;;
77206;SDS011;66190;50.708;7.906;2023-06-14T06:10:09;7.80;;;2.73;;
77206;SDS011;66190;50.708;7.906;2023-06-14T06:12:35;7.43;;;2.72;;
77206;SDS011;66190;50.708;7.906;2023-06-14T06:15:00;10.43;;;2.80;;
77206;SDS011;66190;50.708;7.906;2023-06-14T06:17:26;8.23;;;2.70;;
77206;SDS011;66190;50.708;7.906;2023-06-14T06:19:52;6.43;;;2.40;;
77206;SDS011;66190;50.708;7.906;2023-06-14T06:22:17;5.45;;;2.28;;
77206;SDS011;66190;50.708;7.906;2023-06-14T06:24:42;7.20;;;2.17;;
77206;SDS011;66190;50.708;7.906;2023-06-14T06:27:08;6.77;;;2.70;;
77206;SDS011;66190;50.708;7.906;2023-06-14T06:29:34;6.07;;;2.50;;
77206;SDS011;66190;50.708;7.906;2023-06-14T06:32:00;6.82;;;2.60;;
77206;SDS011;66190;50.708;7.906;2023-06-14T06:34:26;7.93;;;2.88;;
77206;SDS011;66190;50.708;7.906;2023-06-14T06:36:52;9.27;;;2.70;;
77206;SDS011;66190;50.708;7.906;2023-06-14T06:39:17;6.50;;;2.50;;
77206;SDS011;66190;50.708;7.906;2023-06-14T06:41:42;7.10;;;3.10;;
77206;SDS011;66190;50.708;7.906;2023-06-14T06:44:08;7.57;;;3.00;;
77206;SDS011;66190;50.708;7.906;2023-06-14T06:46:36;9.20;;;2.90;;
77206;SDS011;66190;50.708;7.906;2023-06-14T06:49:05;8.27;;;3.05;;
77206;SDS011;66190;50.708;7.906;2023-06-14T06:51:30;6.57;;;2.40;;
77206;SDS011;66190;50.708;7.906;2023-06-14T06:53:56;7.05;;;2.22;;
77206;SDS011;66190;50.708;7.906;2023-06-14T06:56:21;6.60;;;2.40;;
77206;SDS011;66190;50.708;7.906;2023-06-14T06:58:50;6.50;;;2.40;;
77206;SDS011;66190;50.708;7.906;2023-06-14T07:01:16;8.53;;;2.50;;
77206;SDS011;66190;50.708;7.906;2023-06-14T07:03:42;8.32;;;2.00;;
77206;SDS011;66190;50.708;7.906;2023-06-14T07:06:08;6.30;;;2.17;;
77206;SDS011;66190;50.708;7.906;2023-06-14T07:08:33;5.90;;;2.47;;
77206;SDS011;66190;50.708;7.906;2023-06-14T07:10:59;6.13;;;2.17;;
77206;SDS011;66190;50.708;7.906;2023-06-14T07:13:25;8.67;;;2.00;;
77206;SDS011;66190;50.708;7.906;2023-06-14T07:15:54;5.23;;;2.13;;
77206;SDS011;66190;50.708;7.906;2023-06-14T07:18:20;6.68;;;2.25;;
77206;SDS011;66190;50.708;7.906;2023-06-14T07:20:46;6.65;;;2.70;;
77206;SDS011;66190;50.708;7.906;2023-06-14T07:23:12;9.70;;;2.50;;
77206;SDS011;66190;50.708;7.906;2023-06-14T07:25:37;6.53;;;2.35;;
77206;SDS011;66190;50.708;7.906;2023-06-14T07:28:03;8.43;;;2.27;;
77206;SDS011;66190;50.708;7.906;2023-06-14T07:30:28;8.07;;;2.70;;
77206;SDS011;66190;50.708;7.906;2023-06-14T07:32:55;8.65;;;2.42;;
77206;SDS011;66190;50.708;7.906;2023-06-14T07:35:20;5.90;;;2.50;;
77206;SDS011;66190;50.708;7.906;2023-06-14T07:37:46;6.38;;;2.17;;
77206;SDS011;66190;50.708;7.906;2023-06-14T07:40:12;5.97;;;1.70;;
77206;SDS011;66190;50.708;7.906;2023-06-14T07:42:38;5.82;;;2.25;;
77206;SDS011;66190;50.708;7.906;2023-06-14T07:45:04;5.28;;;1.95;;
77206;SDS011;66190;50.708;7.906;2023-06-14T07:47:29;6.40;;;2.00;;
77206;SDS011;66190;50.708;7.906;2023-06-14T07:49:55;6.37;;;2.13;;
77206;SDS011;66190;50.708;7.906;2023-06-14T07:52:20;5.53;;;2.10;;
77206;SDS011;66190;50.708;7.906;2023-06-14T07:54:46;6.70;;;2.30;;
77206;SDS011;66190;50.708;7.906;2023-06-14T07:57:11;6.67;;;2.43;;
77206;SDS011;66190;50.708;7.906;2023-06-14T07:59:36;5.63;;;2.40;;
77206;SDS011;66190;50.708;7.906;2023-06-14T08:02:02;6.00;;;1.92;;
77206;SDS011;66190;50.708;7.906;2023-06-14T08:04:28;5.40;;;1.90;;
77206;SDS011;66190;50.708;7.906;2023-06-14T08:06:53;5.97;;;2.33;;
77206;SDS011;66190;50.708;7.906;2023-06-14T08:09:18;5.97;;;2.10;;
77206;SDS011;66190;50.708;7.906;2023-06-14T08:11:44;5.77;;;2.00;;
77206;SDS011;66190;50.708;7.906;2023-06-14T08:14:09;8.50;;;1.80;;
77206;SDS011;66190;50.708;7.906;2023-06-14T08:16:35;5.73;;;2.13;;
77206;SDS011;66190;50.708;7.906;2023-06-14T08:19:00;4.67;;;1.70;;
77206;SDS011;66190;50.708;7.906;2023-06-14T08:21:26;5.15;;;1.98;;
77206;SDS011;66190;50.708;7.906;2023-06-14T08:23:54;5.70;;;1.80;;
77206;SDS011;66190;50.708;7.906;2023-06-14T08:26:20;5.22;;;1.60;;
77206;SDS011;66190;50.708;7.906;2023-06-14T08:28:45;5.95;;;2.20;;
77206;SDS011;66190;50.708;7.906;2023-06-14T08:31:11;5.63;;;1.77;;
77206;SDS011;66190;50.708;7.906;2023-06-14T08:33:37;5.07;;;1.67;;
77206;SDS011;66190;50.708;7.906;2023-06-14T08:36:04;5.57;;;2.03;;
77206;SDS011;66190;50.708;7.906;2023-06-14T08:38:30;4.90;;;1.77;;
77206;SDS011;66190;50.708;7.906;2023-06-14T08:40:56;5.00;;;1.30;;
77206;SDS011;66190;50.708;7.906;2023-06-14T08:43:23;5.00;;;1.60;;
77206;SDS011;66190;50.708;7.906;2023-06-14T08:45:48;4.83;;;1.43;;
77206;SDS011;66190;50.708;7.906;2023-06-14T08:48:17;5.07;;;1.30;;
77206;SDS011;66190;50.708;7.906;2023-06-14T08:50:45;4.47;;;1.20;;
77206;SDS011;66190;50.708;7.906;2023-06-14T08:53:13;4.32;;;1.33;;
77206;SDS011;66190;50.708;7.906;2023-06-14T08:55:41;6.13;;;2.05;;
77206;SDS011;66190;50.708;7.906;2023-06-14T08:58:08;5.20;;;1.35;;
77206;SDS011;66190;50.708;7.906;2023-06-14T09:00:34;4.45;;;1.40;;
77206;SDS011;66190;50.708;7.906;2023-06-14T09:03:02;5.77;;;1.70;;
77206;SDS011;66190;50.708;7.906;2023-06-14T09:05:28;5.03;;;1.42;;
77206;SDS011;66190;50.708;7.906;2023-06-14T09:07:54;5.03;;;1.60;;
77206;SDS011;66190;50.708;7.906;2023-06-14T09:10:20;7.55;;;1.40;;
77206;SDS011;66190;50.708;7.906;2023-06-14T09:12:46;4.57;;;1.40;;
77206;SDS011;66190;50.708;7.906;2023-06-14T09:15:12;5.97;;;1.90;;
77206;SDS011;66190;50.708;7.906;2023-06-14T09:17:39;5.97;;;1.50;;
77206;SDS011;66190;50.708;7.906;2023-06-14T09:20:05;5.22;;;1.77;;
77206;SDS011;66190;50.708;7.906;2023-06-14T09:22:34;5.32;;;2.00;;
77206;SDS011;66190;50.708;7.906;2023-06-14T09:25:00;6.83;;;2.03;;
77206;SDS011;66190;50.708;7.906;2023-06-14T09:27:26;5.07;;;1.50;;
77206;SDS011;66190;50.708;7.906;2023-06-14T09:29:52;4.85;;;1.50;;
77206;SDS011;66190;50.708;7.906;2023-06-14T09:32:18;5.20;;;1.63;;
77206;SDS011;66190;50.708;7.906;2023-06-14T09:34:45;5.65;;;2.10;;
77206;SDS011;66190;50.708;7.906;2023-06-14T09:37:11;7.00;;;1.77;;
77206;SDS011;66190;50.708;7.906;2023-06-14T09:39:49;5.32;;;1.77;;
77206;SDS011;66190;50.708;7.906;2023-06-14T09:42:18;5.10;;;1.70;;
77206;SDS011;66190;50.708;7.906;2023-06-14T09:44:47;6.00;;;1.27;;
77206;SDS011;66190;50.708;7.906;2023-06-14T09:47:14;5.30;;;1.43;;
77206;SDS011;66190;50.708;7.906;2023-06-14T09:49:43;4.90;;;1.33;;
77206;SDS011;66190;50.708;7.906;2023-06-14T09:52:12;4.60;;;1.33;;
77206;SDS011;66190;50.708;7.906;2023-06-14T09:54:43;4.85;;;1.63;;
77206;SDS011;66190;50.708;7.906;2023-06-14T09:57:20;6.85;;;1.40;;
77206;SDS011;66190;50.708;7.906;2023-06-14T09:59:47;4.93;;;1.38;;
77206;SDS011;66190;50.708;7.906;2023-06-14T10:04:53;4.83;;;1.10;;
77206;SDS011;66190;50.708;7.906;2023-06-14T10:07:26;4.60;;;1.13;;
77206;SDS011;66190;50.708;7.906;2023-06-14T10:09:55;5.40;;;1.38;;
77206;SDS011;66190;50.708;7.906;2023-06-14T10:12:20;5.00;;;1.43;;
77206;SDS011;66190;50.708;7.906;2023-06-14T10:14:48;5.10;;;1.40;;
77206;SDS011;66190;50.708;7.906;2023-06-14T10:17:20;4.50;;;1.42;;
77206;SDS011;66190;50.708;7.906;2023-06-14T10:19:54;5.65;;;1.38;;
77206;SDS011;66190;50.708;7.906;2023-06-14T10:22:35;5.22;;;1.77;;
77206;SDS011;66190;50.708;7.906;2023-06-14T10:25:10;5.57;;;1.80;;
77206;SDS011;66190;50.708;7.906;2023-06-14T10:27:38;5.50;;;2.00;;
77206;SDS011;66190;50.708;7.906;2023-06-14T10:30:04;6.93;;;1.75;;
77206;SDS011;66190;50.708;7.906;2023-06-14T10:32:33;5.27;;;1.83;;
77206;SDS011;66190;50.708;7.906;2023-06-14T10:35:00;5.50;;;1.60;;
77206;SDS011;66190;50.708;7.906;2023-06-14T10:37:32;5.82;;;1.95;;
77206;SDS011;66190;50.708;7.906;2023-06-14T10:39:58;5.37;;;2.27;;
77206;SDS011;66190;50.708;7.906;2023-06-14T10:42:27;6.32;;;2.80;;
77206;SDS011;66190;50.708;7.906;2023-06-14T10:44:56;6.00;;;3.10;;
77206;SDS011;66190;50.708;7.906;2023-06-14T10:50:14;5.90;;;2.53;;
77206;SDS011;66190;50.708;7.906;2023-06-14T10:52:42;6.78;;;2.50;;
77206;SDS011;66190;50.708;7.906;2023-06-14T10:57:38;6.65;;;2.55;;
77206;SDS011;66190;50.708;7.906;2023-06-14T11:00:06;6.68;;;2.55;;
77206;SDS011;66190;50.708;7.906;2023-06-14T11:05:28;5.65;;;2.17;;
77206;SDS011;66190;50.708;7.906;2023-06-14T11:07:58;5.68;;;1.88;;
77206;SDS011;66190;50.708;7.906;2023-06-14T11:10:40;6.32;;;2.67;;
77206;SDS011;66190;50.708;7.906;2023-06-14T11:13:07;6.23;;;2.57;;
77206;SDS011;66190;50.708;7.906;2023-06-14T11:15:34;5.82;;;2.00;;
77206;SDS011;66190;50.708;7.906;2023-06-14T11:18:01;5.38;;;2.35;;
77206;SDS011;66190;50.708;7.906;2023-06-14T11:20:29;5.55;;;2.60;;
77206;SDS011;66190;50.708;7.906;2023-06-14T11:22:55;5.97;;;2.50;;
77206;SDS011;66190;50.708;7.906;2023-06-14T11:25:21;5.73;;;2.27;;
77206;SDS011;66190;50.708;7.906;2023-06-14T11:27:48;5.40;;;2.47;;
77206;SDS011;66190;50.708;7.906;2023-06-14T11:30:15;7.00;;;2.95;;
77206;SDS011;66190;50.708;7.906;2023-06-14T11:32:40;8.00;;;3.20;;
77206;SDS011;66190;50.708;7.906;2023-06-14T11:35:06;8.85;;;2.33;;
77206;SDS011;66190;50.708;7.906;2023-06-14T11:37:32;6.07;;;2.60;;
77206;SDS011;66190;50.708;7.906;2023-06-14T11:40:02;6.88;;;2.90;;
77206;SDS011;66190;50.708;7.906;2023-06-14T11:42:34;6.10;;;2.15;;
77206;SDS011;66190;50.708;7.906;2023-06-14T11:45:00;5.50;;;2.30;;
77206;SDS011;66190;50.708;7.906;2023-06-14T11:47:31;6.67;;;2.20;;
77206;SDS011;66190;50.708;7.906;2023-06-14T11:49:58;6.22;;;1.88;;
77206;SDS011;66190;50.708;7.906;2023-06-14T11:52:24;6.10;;;2.40;;
77206;SDS011;66190;50.708;7.906;2023-06-14T11:54:50;4.47;;;1.73;;
77206;SDS011;66190;50.708;7.906;2023-06-14T11:57:17;6.45;;;2.45;;
77206;SDS011;66190;50.708;7.906;2023-06-14T11:59:43;5.53;;;2.45;;
77206;SDS011;66190;50.708;7.906;2023-06-14T12:02:09;5.53;;;2.42;;
77206;SDS011;66190;50.708;7.906;2023-06-14T12:04:42;6.53;;;1.90;;
77206;SDS011;66190;50.708;7.906;2023-06-14T12:07:09;6.50;;;2.10;;
77206;SDS011;66190;50.708;7.906;2023-06-14T12:09:46;5.53;;;1.95;;
77206;SDS011;66190;50.708;7.906;2023-06-14T12:12:26;4.93;;;1.90;;
77206;SDS011;66190;50.708;7.906;2023-06-14T12:14:52;6.22;;;2.17;;
77206;SDS011;66190;50.708;7.906;2023-06-14T12:17:18;7.57;;;1.83;;
77206;SDS011;66190;50.708;7.906;2023-06-14T12:19:45;5.82;;;2.17;;
77206;SDS011;66190;50.708;7.906;2023-06-14T12:22:14;5.15;;;2.05;;
77206;SDS011;66190;50.708;7.906;2023-06-14T12:24:43;5.72;;;2.22;;
77206;SDS011;66190;50.708;7.906;2023-06-14T12:27:10;6.47;;;2.55;;
77206;SDS011;66190;50.708;7.906;2023-06-14T12:29:37;6.87;;;2.30;;
77206;SDS011;66190;50.708;7.906;2023-06-14T12:32:02;5.30;;;2.00;;
77206;SDS011;66190;50.708;7.906;2023-06-14T12:34:28;5.97;;;1.90;;
77206;SDS011;66190;50.708;7.906;2023-06-14T12:36:53;5.93;;;2.08;;
77206;SDS011;66190;50.708;7.906;2023-06-14T12:39:19;5.53;;;2.43;;
77206;SDS011;66190;50.708;7.906;2023-06-14T12:41:46;5.65;;;1.80;;
77206;SDS011;66190;50.708;7.906;2023-06-14T12:44:11;5.53;;;2.03;;
77206;SDS011;66190;50.708;7.906;2023-06-14T12:46:37;7.40;;;2.30;;
77206;SDS011;66190;50.708;7.906;2023-06-14T12:49:07;6.22;;;2.05;;
77206;SDS011;66190;50.708;7.906;2023-06-14T12:51:33;5.78;;;2.17;;
77206;SDS011;66190;50.708;7.906;2023-06-14T12:53:58;5.10;;;2.00;;
77206;SDS011;66190;50.708;7.906;2023-06-14T12:56:24;6.27;;;2.23;;
77206;SDS011;66190;50.708;7.906;2023-06-14T12:58:49;6.53;;;2.25;;
77206;SDS011;66190;50.708;7.906;2023-06-14T13:01:15;5.77;;;2.03;;
77206;SDS011;66190;50.708;7.906;2023-06-14T13:03:40;5.40;;;2.00;;
77206;SDS011;66190;50.708;7.906;2023-06-14T13:06:06;5.13;;;1.87;;
77206;SDS011;66190;50.708;7.906;2023-06-14T13:08:31;5.47;;;2.27;;
77206;SDS011;66190;50.708;7.906;2023-06-14T13:10:56;5.70;;;1.75;;
77206;SDS011;66190;50.708;7.906;2023-06-14T13:13:22;4.87;;;1.70;;
77206;SDS011;66190;50.708;7.906;2023-06-14T13:15:48;5.75;;;2.13;;
77206;SDS011;66190;50.708;7.906;2023-06-14T13:18:14;5.95;;;2.28;;
77206;SDS011;66190;50.708;7.906;2023-06-14T13:20:40;5.10;;;2.30;;
77206;SDS011;66190;50.708;7.906;2023-06-14T13:23:06;4.97;;;2.60;;
77206;SDS011;66190;50.708;7.906;2023-06-14T13:25:35;5.90;;;1.83;;
77206;SDS011;66190;50.708;7.906;2023-06-14T13:28:02;7.35;;;2.47;;
77206;SDS011;66190;50.708;7.906;2023-06-14T13:30:28;5.75;;;2.15;;
77206;SDS011;66190;50.708;7.906;2023-06-14T13:32:54;5.30;;;2.03;;
77206;SDS011;66190;50.708;7.906;2023-06-14T13:35:20;7.38;;;2.25;;
77206;SDS011;66190;50.708;7.906;2023-06-14T13:37:46;5.73;;;1.93;;
77206;SDS011;66190;50.708;7.906;2023-06-14T13:40:12;5.70;;;2.03;;
77206;SDS011;66190;50.708;7.906;2023-06-14T13:42:37;4.70;;;1.90;;
77206;SDS011;66190;50.708;7.906;2023-06-14T13:45:03;5.07;;;2.20;;
77206;SDS011;66190;50.708;7.906;2023-06-14T13:47:29;5.38;;;2.10;;
77206;SDS011;66190;50.708;7.906;2023-06-14T13:49:56;5.35;;;2.50;;
77206;SDS011;66190;50.708;7.906;2023-06-14T13:52:21;5.53;;;2.20;;
77206;SDS011;66190;50.708;7.906;2023-06-14T13:54:47;5.85;;;2.10;;
77206;SDS011;66190;50.708;7.906;2023-06-14T13:57:13;7.43;;;2.25;;
77206;SDS011;66190;50.708;7.906;2023-06-14T13:59:39;6.07;;;2.13;;
77206;SDS011;66190;50.708;7.906;2023-06-14T14:02:05;6.85;;;2.30;;
77206;SDS011;66190;50.708;7.906;2023-06-14T14:04:31;6.53;;;2.00;;
77206;SDS011;66190;50.708;7.906;2023-06-14T14:06:56;7.32;;;2.22;;
77206;SDS011;66190;50.708;7.906;2023-06-14T14:09:22;6.40;;;2.57;;
77206;SDS011;66190;50.708;7.906;2023-06-14T14:11:47;6.47;;;2.07;;
77206;SDS011;66190;50.708;7.906;2023-06-14T14:14:13;5.63;;;2.05;;
77206;SDS011;66190;50.708;7.906;2023-06-14T14:16:39;5.70;;;2.53;;
77206;SDS011;66190;50.708;7.906;2023-06-14T14:19:05;5.80;;;2.23;;
77206;SDS011;66190;50.708;7.906;2023-06-14T14:21:31;5.15;;;2.30;;
77206;SDS011;66190;50.708;7.906;2023-06-14T14:23:57;6.23;;;2.50;;
77206;SDS011;66190;50.708;7.906;2023-06-14T14:26:22;5.60;;;2.77;;
77206;SDS011;66190;50.708;7.906;2023-06-14T14:28:48;7.28;;;3.35;;
77206;SDS011;66190;50.708;7.906;2023-06-14T14:31:14;7.50;;;2.53;;
77206;SDS011;66190;50.708;7.906;2023-06-14T14:33:39;5.72;;;2.22;;
77206;SDS011;66190;50.708;7.906;2023-06-14T14:36:04;5.77;;;2.37;;
77206;SDS011;66190;50.708;7.906;2023-06-14T14:38:31;5.22;;;2.22;;
77206;SDS011;66190;50.708;7.906;2023-06-14T14:40:57;5.57;;;2.30;;
77206;SDS011;66190;50.708;7.906;2023-06-14T14:43:22;5.80;;;2.57;;
77206;SDS011;66190;50.708;7.906;2023-06-14T14:45:48;6.17;;;2.50;;
77206;SDS011;66190;50.708;7.906;2023-06-14T14:48:13;5.00;;;2.45;;
77206;SDS011;66190;50.708;7.906;2023-06-14T14:50:39;6.80;;;2.57;;
77206;SDS011;66190;50.708;7.906;2023-06-14T14:53:05;6.00;;;2.50;;
77206;SDS011;66190;50.708;7.906;2023-06-14T14:55:31;5.45;;;2.63;;
77206;SDS011;66190;50.708;7.906;2023-06-14T14:57:59;5.43;;;2.30;;